createdAt,value
2019-03-05T00:01:41.105Z,5.20
2019-03-05T00:04:11.124Z,5.14
2019-03-05T00:06:40.882Z,5.11
2019-03-05T00:09:18.140Z,5.07
2019-03-05T00:11:47.718Z,4.99
2019-03-05T00:14:18.823Z,4.91
2019-03-05T00:16:48.788Z,4.79
2019-03-05T00:19:18.526Z,4.79
2019-03-05T00:21:48.163Z,4.81
2019-03-05T00:24:53.584Z,4.81
2019-03-05T00:27:23.209Z,4.78
2019-03-05T00:30:42.906Z,4.69
2019-03-05T00:33:22.534Z,4.61
2019-03-05T00:36:06.264Z,4.61
2019-03-05T00:39:13.195Z,4.55
2019-03-05T00:42:29.896Z,4.48
2019-03-05T00:45:44.841Z,4.47
2019-03-05T00:48:55.005Z,4.49
2019-03-05T00:52:17.162Z,4.43
2019-03-05T00:55:21.978Z,4.33
2019-03-05T00:58:16.526Z,4.27
2019-03-05T01:01:23.308Z,4.19
2019-03-05T01:04:19.215Z,4.17
2019-03-05T01:06:49.243Z,4.14
2019-03-05T01:09:22.768Z,4.09
2019-03-05T01:11:53.603Z,4.11
2019-03-05T01:14:25.556Z,4.15
2019-03-05T01:16:56.105Z,4.13
2019-03-05T01:19:25.674Z,4.19
2019-03-05T01:21:55.401Z,4.13
2019-03-05T01:24:25.227Z,4.15
2019-03-05T01:26:55.457Z,4.19
2019-03-05T01:29:25.340Z,4.17
2019-03-05T01:32:12.812Z,4.20
2019-03-05T01:35:04.172Z,4.21
2019-03-05T01:37:35.118Z,4.20
2019-03-05T01:40:25.704Z,4.13
2019-03-05T01:42:55.474Z,4.09
2019-03-05T01:45:25.589Z,3.94
2019-03-05T01:47:58.690Z,3.87
2019-03-05T01:50:28.208Z,3.83
2019-03-05T01:52:57.786Z,3.86
2019-03-05T01:55:27.657Z,3.92
2019-03-05T01:57:57.544Z,3.90
2019-03-05T02:00:27.845Z,3.93
2019-03-05T02:02:57.452Z,3.94
2019-03-05T02:05:27.051Z,3.94
2019-03-05T02:07:57.522Z,3.98
2019-03-05T02:10:27.757Z,3.96
2019-03-05T02:12:57.425Z,3.98
2019-03-05T02:15:27.134Z,4.01
2019-03-05T02:17:56.872Z,3.99
2019-03-05T02:20:26.823Z,4.01
2019-03-05T02:23:25.374Z,4.01
2019-03-05T02:26:17.112Z,3.99
2019-03-05T02:29:40.101Z,3.96
2019-03-05T02:32:40.959Z,4.01
2019-03-05T02:35:22.637Z,4.01
2019-03-05T02:38:08.406Z,4.05
2019-03-05T02:41:10.245Z,4.07
2019-03-05T02:44:16.560Z,3.98
2019-03-05T02:47:14.361Z,3.96
2019-03-05T02:50:25.030Z,4.01
2019-03-05T02:53:38.609Z,4.01
2019-03-05T02:56:54.619Z,4.00
2019-03-05T02:59:24.628Z,3.97
2019-03-05T03:02:16.342Z,3.92
2019-03-05T03:04:48.691Z,3.92
2019-03-05T03:07:18.336Z,3.85
2019-03-05T03:10:12.900Z,3.92
2019-03-05T03:12:43.439Z,3.87
2019-03-05T03:15:15.136Z,3.79
2019-03-05T03:17:44.986Z,3.80
2019-03-05T03:20:16.956Z,3.80
2019-03-05T03:22:46.736Z,3.74
2019-03-05T03:25:18.313Z,2.81
2019-03-05T03:27:48.064Z,3.72
2019-03-05T03:30:19.774Z,3.75
2019-03-05T03:32:49.607Z,3.82
2019-03-05T03:35:19.844Z,3.83
2019-03-05T03:37:50.363Z,3.81
2019-03-05T03:40:21.642Z,3.78
2019-03-05T03:42:51.924Z,3.77
2019-03-05T03:45:26.337Z,3.79
2019-03-05T03:47:56.375Z,3.82
2019-03-05T03:50:26.069Z,3.78
2019-03-05T03:52:55.697Z,3.79
2019-03-05T04:02:21.199Z,3.81
2019-03-05T04:04:50.881Z,3.79
2019-03-05T04:07:20.516Z,3.82
2019-03-05T04:09:50.445Z,3.80
2019-03-05T04:12:25.809Z,3.78
2019-03-05T04:22:03.883Z,3.69
2019-03-05T04:24:33.425Z,3.67
2019-03-05T04:27:03.148Z,3.69
2019-03-05T04:29:33.097Z,3.70
2019-03-05T04:32:03.214Z,3.68
2019-03-05T04:45:01.842Z,3.70
2019-03-05T04:47:31.443Z,3.65
2019-03-05T04:50:18.797Z,3.69
2019-03-05T04:52:48.467Z,3.67
2019-03-05T04:55:18.068Z,3.61
2019-03-05T04:57:48.014Z,3.62
2019-03-05T05:00:18.103Z,3.65
2019-03-05T05:02:47.647Z,3.52
2019-03-05T05:05:17.618Z,3.54
2019-03-05T05:07:47.494Z,3.53
2019-03-05T05:10:17.083Z,3.56
2019-03-05T05:12:46.810Z,3.53
2019-03-05T05:15:30.398Z,3.56
2019-03-05T05:18:00.311Z,3.56
2019-03-05T05:20:30.354Z,3.52
2019-03-05T05:22:59.957Z,2.60
2019-03-05T05:25:29.637Z,3.49
2019-03-05T05:27:59.228Z,3.44
2019-03-05T05:30:34.372Z,3.48
2019-03-05T05:33:04.535Z,3.48
2019-03-05T05:35:34.515Z,3.43
2019-03-05T05:38:04.762Z,3.44
2019-03-05T05:40:36.223Z,3.40
2019-03-05T05:43:07.068Z,3.40
2019-03-05T05:45:45.356Z,3.36
2019-03-05T05:48:15.625Z,3.33
2019-03-05T05:50:45.335Z,3.37
2019-03-05T05:53:15.343Z,3.42
2019-03-05T05:55:45.227Z,3.42
2019-03-05T05:58:15.173Z,3.36
2019-03-05T06:00:47.321Z,3.34
2019-03-05T06:03:16.965Z,3.32
2019-03-05T06:05:46.782Z,3.31
2019-03-05T06:08:16.634Z,3.33
2019-03-05T06:10:46.307Z,3.31
2019-03-05T06:13:15.874Z,3.34
2019-03-05T06:15:45.635Z,3.30
2019-03-05T06:18:15.182Z,3.32
2019-03-05T06:20:44.995Z,3.34
2019-03-05T06:23:14.747Z,3.37
2019-03-05T06:25:44.347Z,3.35
2019-03-05T06:28:14.022Z,3.38
2019-03-05T06:30:43.847Z,3.38
2019-03-05T06:33:13.542Z,3.36
2019-03-05T06:35:43.255Z,3.36
2019-03-05T06:38:12.959Z,3.35
2019-03-05T06:40:42.789Z,3.39
2019-03-05T06:43:12.474Z,3.34
2019-03-05T06:45:42.309Z,3.27
2019-03-05T06:48:11.959Z,3.22
2019-03-05T06:50:41.969Z,3.16
2019-03-05T06:53:11.841Z,3.15
2019-03-05T06:55:41.524Z,3.14
2019-03-05T06:58:11.992Z,3.23
2019-03-05T07:00:41.885Z,3.17
2019-03-05T07:03:11.645Z,3.16
2019-03-05T07:06:16.481Z,3.15
2019-03-05T07:08:54.064Z,3.10
2019-03-05T07:11:42.618Z,3.04
2019-03-05T07:14:20.046Z,3.05
2019-03-05T07:17:04.832Z,3.05
2019-03-05T07:19:45.466Z,3.06
2019-03-05T07:22:43.874Z,3.05
2019-03-05T07:25:13.554Z,3.16
2019-03-05T07:27:53.444Z,3.20
2019-03-05T07:30:24.536Z,3.26
2019-03-05T07:32:54.891Z,3.18
2019-03-05T07:35:26.800Z,3.17
2019-03-05T07:37:56.610Z,3.19
2019-03-05T07:40:26.266Z,3.13
2019-03-05T07:42:55.724Z,3.14
2019-03-05T07:45:25.694Z,3.06
2019-03-05T07:47:55.249Z,3.11
2019-03-05T07:50:25.009Z,3.14
2019-03-05T07:52:54.855Z,3.14
2019-03-05T07:55:24.539Z,3.13
2019-03-05T07:57:54.158Z,3.13
2019-03-05T08:00:24.197Z,3.06
2019-03-05T08:02:53.918Z,3.09
2019-03-05T08:05:23.597Z,3.05
2019-03-05T08:07:53.595Z,3.07
2019-03-05T08:10:31.400Z,3.01
2019-03-05T08:13:23.822Z,3.10
2019-03-05T08:16:14.880Z,3.17
2019-03-05T08:18:44.601Z,3.10
2019-03-05T08:21:14.188Z,3.19
2019-03-05T08:23:43.739Z,3.10
2019-03-05T08:26:14.137Z,3.09
2019-03-05T08:28:43.624Z,3.09
2019-03-05T08:31:13.242Z,3.12
2019-03-05T08:34:47.445Z,3.07
2019-03-05T08:38:09.804Z,3.10
2019-03-05T08:40:47.063Z,3.16
2019-03-05T08:43:16.923Z,3.15
2019-03-05T09:10:53.735Z,3.73
2019-03-05T09:13:32.217Z,3.37
2019-03-05T09:15:55.280Z,3.29
2019-03-05T09:18:25.013Z,3.28
2019-03-05T09:20:54.912Z,3.27
2019-03-05T09:23:24.876Z,3.33
2019-03-05T09:25:54.460Z,3.35
2019-03-05T09:28:24.283Z,3.37
2019-03-05T09:30:54.264Z,3.39
2019-03-05T09:33:23.933Z,3.46
2019-03-05T09:35:53.523Z,3.52
2019-03-05T09:38:23.546Z,3.49
2019-03-05T09:40:53.488Z,3.49
2019-03-05T09:43:23.375Z,3.59
2019-03-05T09:45:53.285Z,3.60
2019-03-05T09:48:23.092Z,3.60
2019-03-05T09:50:52.914Z,3.60
2019-03-05T09:53:22.976Z,3.65
2019-03-05T09:55:52.493Z,3.55
2019-03-05T09:58:22.301Z,3.58
2019-03-05T10:00:52.100Z,3.62
2019-03-05T10:03:22.285Z,3.62
2019-03-05T10:05:51.900Z,3.65
2019-03-05T10:08:32.081Z,3.63
2019-03-05T10:10:53.330Z,3.59
2019-03-05T10:13:23.621Z,3.66
2019-03-05T10:15:53.659Z,3.60
2019-03-05T10:18:23.590Z,3.62
2019-03-05T10:20:53.635Z,3.61
2019-03-05T10:23:23.390Z,3.65
2019-03-05T10:25:53.372Z,3.57
2019-03-05T10:28:23.181Z,3.69
2019-03-05T10:30:53.013Z,3.64
2019-03-05T10:33:23.064Z,3.60
2019-03-05T10:35:53.022Z,3.64
2019-03-05T10:38:22.868Z,3.76
2019-03-05T10:40:53.672Z,3.82
2019-03-05T10:43:23.588Z,3.77
2019-03-05T10:45:53.220Z,3.82
2019-03-05T10:48:23.628Z,3.88
2019-03-05T10:50:53.889Z,4.08
2019-03-05T10:53:23.946Z,4.05
2019-03-05T10:55:53.926Z,3.99
2019-03-05T10:58:33.210Z,3.86
2019-03-05T11:00:55.414Z,3.76
2019-03-05T11:03:27.213Z,3.63
2019-03-05T11:05:56.914Z,3.65
2019-03-05T11:08:28.770Z,3.64
2019-03-05T11:11:00.476Z,3.73
2019-03-05T11:13:30.566Z,3.75
2019-03-05T11:16:00.421Z,3.71
2019-03-05T11:18:30.395Z,3.63
2019-03-05T11:21:00.316Z,3.68
2019-03-05T11:23:30.331Z,3.63
2019-03-05T11:26:00.299Z,3.65
2019-03-05T11:28:30.286Z,3.73
2019-03-05T11:30:59.981Z,3.72
2019-03-05T11:33:30.052Z,3.70
2019-03-05T11:36:00.238Z,3.68
2019-03-05T11:38:30.230Z,3.71
2019-03-05T11:41:00.511Z,3.83
2019-03-05T11:43:30.381Z,3.66
2019-03-05T11:46:00.360Z,3.52
2019-03-05T11:48:30.391Z,3.55
2019-03-05T11:51:00.484Z,3.41
2019-03-05T11:53:30.381Z,3.72
2019-03-05T11:56:00.424Z,3.75
2019-03-05T11:58:30.213Z,3.60
2019-03-05T12:01:07.089Z,3.60
2019-03-05T12:03:37.449Z,3.69
2019-03-05T12:06:07.227Z,3.77
2019-03-05T12:08:37.214Z,3.61
2019-03-05T12:11:06.989Z,3.49
2019-03-05T12:13:36.800Z,3.56
2019-03-05T12:16:12.908Z,3.62
2019-03-05T12:18:42.828Z,3.51
2019-03-05T12:21:12.463Z,3.50
2019-03-05T12:23:46.952Z,3.59
2019-03-05T12:26:14.005Z,3.54
2019-03-05T12:28:44.190Z,3.55
2019-03-05T12:31:13.927Z,3.64
2019-03-05T12:33:43.912Z,3.70
2019-03-05T12:36:14.185Z,3.73
2019-03-05T12:38:46.141Z,3.62
2019-03-05T12:41:15.689Z,3.60
2019-03-05T12:43:45.687Z,3.48
2019-03-05T12:46:15.962Z,3.47
2019-03-05T12:48:46.000Z,3.60
2019-03-05T12:51:15.884Z,3.61
2019-03-05T12:53:45.818Z,3.59
2019-03-05T12:56:23.360Z,3.55
2019-03-05T12:58:47.737Z,3.53
2019-03-05T13:01:17.556Z,3.48
2019-03-05T13:03:47.575Z,3.60
2019-03-05T13:06:17.546Z,3.48
2019-03-05T13:08:47.265Z,3.58
2019-03-05T13:11:17.179Z,3.57
2019-03-05T13:13:47.600Z,3.63
2019-03-05T13:16:20.906Z,3.59
2019-03-05T13:18:51.075Z,3.64
2019-03-05T13:21:20.828Z,3.58
2019-03-05T13:23:51.608Z,3.60
2019-03-05T13:26:21.669Z,3.58
2019-03-05T13:28:52.527Z,3.53
2019-03-05T13:31:23.467Z,3.51
2019-03-05T13:33:53.620Z,3.38
2019-03-05T13:36:23.738Z,3.44
2019-03-05T13:38:53.822Z,3.40
2019-03-05T13:41:23.761Z,3.46
2019-03-05T13:43:55.480Z,3.43
2019-03-05T13:46:28.643Z,3.48
2019-03-05T13:49:39.966Z,3.55
2019-03-05T13:52:37.519Z,3.55
2019-03-05T13:55:23.512Z,3.48
2019-03-05T13:58:36.064Z,3.49
2019-03-05T14:01:09.261Z,3.59
2019-03-05T14:03:53.469Z,3.60
2019-03-05T14:07:03.566Z,3.61
2019-03-05T14:09:31.509Z,3.49
2019-03-05T14:12:01.438Z,3.45
2019-03-05T14:14:31.698Z,3.36
2019-03-05T14:17:18.821Z,3.32
2019-03-05T14:19:48.665Z,3.37
2019-03-05T14:22:18.508Z,3.33
2019-03-05T14:24:48.933Z,3.34
2019-03-05T14:27:19.038Z,3.23
2019-03-05T14:29:49.089Z,3.23
2019-03-05T14:32:19.058Z,3.19
2019-03-05T14:35:07.594Z,3.12
2019-03-05T14:37:37.799Z,3.12
2019-03-05T14:40:23.687Z,3.23
2019-03-05T14:42:42.184Z,3.19
2019-03-05T14:45:17.758Z,3.26
2019-03-05T14:47:47.742Z,3.23
2019-03-05T14:50:17.357Z,3.18
2019-03-05T14:52:47.318Z,3.21
2019-03-05T14:55:17.416Z,3.29
2019-03-05T14:57:47.834Z,3.28
2019-03-05T15:00:19.538Z,3.23
2019-03-05T15:02:49.418Z,3.25
2019-03-05T15:05:19.361Z,3.00
2019-03-05T15:07:49.502Z,3.19
2019-03-05T15:10:19.504Z,3.30
2019-03-05T15:12:49.236Z,3.25
2019-03-05T15:15:21.825Z,3.13
2019-03-05T15:17:51.989Z,3.08
2019-03-05T15:20:22.043Z,3.15
2019-03-05T15:22:52.185Z,3.19
2019-03-05T15:25:21.855Z,3.20
2019-03-05T15:27:51.808Z,3.17
2019-03-05T15:30:22.741Z,3.08
2019-03-05T15:32:52.609Z,3.01
2019-03-05T15:35:22.563Z,3.01
2019-03-05T15:37:52.852Z,3.12
2019-03-05T15:40:22.981Z,3.04
2019-03-05T15:42:53.029Z,3.04
2019-03-05T15:45:23.063Z,3.12
2019-03-05T15:47:52.794Z,3.05
2019-03-05T15:50:22.656Z,3.13
2019-03-05T15:52:52.545Z,2.98
2019-03-05T15:55:22.616Z,3.09
2019-03-05T15:57:52.496Z,2.98
2019-03-05T16:00:30.440Z,2.99
2019-03-05T16:03:00.929Z,2.99
2019-03-05T16:05:31.058Z,2.90
2019-03-05T16:08:01.386Z,2.94
2019-03-05T16:10:31.571Z,3.05
2019-03-05T16:13:01.424Z,2.91
2019-03-05T16:15:31.309Z,2.84
2019-03-05T16:18:05.136Z,2.95
2019-03-05T16:20:33.167Z,2.95
2019-03-05T16:23:02.804Z,2.87
2019-03-05T16:25:32.506Z,2.82
2019-03-05T16:28:06.300Z,2.71
2019-03-05T16:30:53.634Z,2.84
2019-03-05T16:33:36.750Z,2.82
2019-03-05T16:36:30.580Z,2.82
2019-03-05T16:39:27.247Z,2.74
2019-03-05T16:42:35.492Z,2.79
2019-03-05T16:45:27.921Z,2.74
2019-03-05T16:48:20.049Z,2.77
2019-03-05T16:51:05.136Z,2.75
2019-03-05T16:54:05.957Z,2.81
2019-03-05T16:56:42.893Z,2.72
2019-03-05T16:59:31.387Z,2.73
2019-03-05T17:02:19.276Z,2.70
2019-03-05T17:05:06.485Z,2.67
2019-03-05T17:08:03.334Z,2.66
2019-03-05T17:10:50.684Z,2.73
2019-03-05T17:13:20.713Z,2.69
2019-03-05T17:15:50.648Z,2.54
2019-03-05T17:18:20.387Z,2.60
2019-03-05T17:20:50.498Z,2.60
2019-03-05T17:23:20.501Z,2.52
2019-03-05T17:25:50.937Z,2.39
2019-03-05T17:28:20.888Z,2.49
2019-03-05T17:30:50.901Z,2.49
2019-03-05T17:33:20.796Z,2.51
2019-03-05T17:35:50.728Z,2.52
2019-03-05T17:38:20.603Z,2.59
2019-03-05T17:40:50.382Z,2.63
2019-03-05T17:43:20.515Z,2.51
2019-03-05T17:45:50.163Z,2.41
2019-03-05T17:48:20.056Z,2.36
2019-03-05T17:50:50.237Z,2.37
2019-03-05T17:53:20.073Z,2.20
2019-03-05T17:55:50.471Z,2.16
2019-03-05T17:58:20.464Z,2.33
2019-03-05T18:00:50.359Z,2.48
2019-03-05T18:03:20.310Z,2.37
2019-03-05T18:05:50.234Z,2.35
2019-03-05T18:08:20.158Z,2.33
2019-03-05T18:10:50.076Z,2.26
2019-03-05T18:13:20.109Z,2.33
2019-03-05T18:15:49.807Z,2.32
2019-03-05T18:18:19.812Z,2.38
2019-03-05T18:20:50.155Z,2.40
2019-03-05T18:23:19.876Z,2.40
2019-03-05T18:25:49.818Z,2.36
2019-03-05T18:28:19.905Z,2.31
2019-03-05T18:30:49.703Z,2.37
2019-03-05T18:33:20.152Z,2.36
2019-03-05T18:35:50.608Z,2.34
2019-03-05T18:38:21.651Z,2.33
2019-03-05T18:40:51.903Z,2.22
2019-03-05T18:43:21.792Z,2.18
2019-03-05T18:45:51.713Z,2.27
2019-03-05T18:48:21.939Z,2.28
2019-03-05T18:50:52.953Z,2.31
2019-03-05T18:53:22.758Z,2.32
2019-03-05T18:55:52.745Z,2.28
2019-03-05T18:58:22.736Z,2.27
2019-03-05T19:00:52.405Z,2.20
2019-03-05T19:03:22.702Z,2.21
2019-03-05T19:05:52.461Z,2.24
2019-03-05T19:08:22.428Z,2.21
2019-03-05T19:10:52.596Z,2.19
2019-03-05T19:13:22.611Z,2.20
2019-03-05T19:15:55.155Z,2.21
2019-03-05T19:18:24.886Z,2.21
2019-03-05T19:20:54.891Z,2.21
2019-03-05T19:23:24.729Z,2.21
2019-03-05T19:25:54.928Z,2.17
2019-03-05T19:28:25.051Z,2.14
2019-03-05T19:30:54.940Z,2.15
2019-03-05T19:33:24.731Z,2.19
2019-03-05T19:35:54.657Z,2.15
2019-03-05T19:38:25.351Z,2.25
2019-03-05T19:40:55.797Z,2.19
2019-03-05T19:43:25.729Z,2.17
2019-03-05T19:45:55.572Z,2.12
2019-03-05T19:48:25.801Z,2.12
2019-03-05T19:50:55.814Z,2.13
2019-03-05T19:53:25.422Z,2.22
2019-03-05T19:55:55.791Z,2.19
2019-03-05T19:58:25.676Z,2.17
2019-03-05T20:01:13.963Z,2.13
2019-03-05T20:03:43.778Z,2.09
2019-03-05T20:06:15.067Z,2.11
2019-03-05T20:08:45.334Z,2.09
2019-03-05T20:11:15.406Z,2.07
2019-03-05T20:13:45.783Z,2.07
2019-03-05T20:16:17.520Z,1.99
2019-03-05T20:18:47.740Z,2.06
2019-03-05T20:21:17.467Z,2.07
2019-03-05T20:23:47.223Z,2.06
2019-03-05T20:26:17.114Z,2.14
2019-03-05T20:28:47.900Z,2.08
2019-03-05T20:31:18.024Z,2.00
2019-03-05T20:33:47.982Z,1.99
2019-03-05T20:36:17.473Z,2.01
2019-03-05T20:38:47.401Z,2.08
2019-03-05T20:41:16.929Z,2.13
2019-03-05T20:43:46.818Z,1.87
2019-03-05T20:46:28.529Z,1.90
2019-03-05T20:48:58.558Z,2.00
2019-03-05T20:51:28.639Z,1.94
2019-03-05T20:53:58.647Z,1.97
2019-03-05T20:56:28.393Z,1.98
2019-03-05T20:59:00.150Z,2.04
2019-03-05T21:01:31.405Z,2.05
2019-03-05T21:04:01.705Z,2.00
2019-03-05T21:06:31.573Z,2.02
2019-03-05T21:09:01.399Z,2.03
2019-03-05T21:11:31.154Z,2.06
2019-03-05T21:14:01.180Z,2.03
2019-03-05T21:16:31.654Z,2.06
2019-03-05T21:19:01.696Z,2.13
2019-03-05T21:21:32.096Z,2.10
2019-03-05T21:24:02.351Z,2.07
2019-03-05T21:26:32.435Z,2.03
2019-03-05T21:29:03.359Z,2.00
2019-03-05T21:31:33.141Z,2.06
2019-03-05T21:34:03.008Z,2.01
2019-03-05T21:36:32.641Z,1.98
2019-03-05T21:39:02.724Z,2.05
2019-03-05T21:41:33.565Z,2.05
2019-03-05T21:44:03.532Z,2.08
2019-03-05T21:46:33.073Z,2.08
2019-03-05T21:49:02.611Z,1.99
2019-03-05T21:51:32.616Z,2.09
2019-03-05T21:54:02.801Z,2.11
2019-03-05T21:56:32.667Z,2.08
2019-03-05T21:59:03.209Z,2.10
2019-03-05T22:01:33.450Z,2.10
2019-03-05T22:04:03.404Z,2.14
2019-03-05T22:06:33.216Z,2.19
2019-03-05T22:09:02.735Z,2.17
2019-03-05T22:11:32.751Z,2.18
2019-03-05T22:14:02.495Z,2.18
2019-03-05T22:16:32.488Z,2.19
2019-03-05T22:19:05.923Z,2.24
2019-03-05T22:21:36.292Z,2.26
2019-03-05T22:24:06.697Z,2.25
2019-03-05T22:26:36.795Z,2.27
2019-03-05T22:29:06.988Z,2.27
2019-03-05T22:31:36.763Z,2.23
2019-03-05T22:34:06.451Z,2.28
2019-03-05T22:36:35.944Z,2.30
2019-03-05T22:39:07.199Z,2.28
2019-03-05T22:41:38.347Z,2.32
2019-03-05T22:44:08.159Z,2.32
2019-03-05T22:46:38.286Z,2.23
2019-03-05T22:49:08.601Z,2.25
2019-03-05T22:51:38.670Z,2.30
2019-03-05T22:54:08.449Z,2.24
2019-03-05T22:56:38.323Z,2.27
2019-03-05T22:59:08.065Z,2.30
2019-03-05T23:01:40.370Z,2.36
2019-03-05T23:04:11.280Z,2.41
2019-03-05T23:06:42.913Z,2.44
2019-03-05T23:09:19.831Z,2.50
2019-03-05T23:11:49.915Z,2.49
2019-03-05T23:14:19.785Z,2.40
2019-03-05T23:16:49.561Z,2.41
2019-03-05T23:19:19.871Z,2.47
2019-03-05T23:21:49.591Z,2.41
2019-03-05T23:24:19.642Z,2.45
2019-03-05T23:26:49.686Z,2.37
2019-03-05T23:29:21.102Z,2.44
2019-03-05T23:31:51.220Z,2.49
2019-03-05T23:34:21.023Z,2.59
2019-03-05T23:36:50.710Z,2.55
2019-03-05T23:39:20.746Z,2.63
2019-03-05T23:41:50.877Z,2.60
2019-03-05T23:44:20.495Z,2.57
2019-03-05T23:46:50.566Z,2.57
2019-03-05T23:49:20.382Z,2.56
2019-03-05T23:51:50.117Z,2.51
2019-03-05T23:54:19.911Z,2.58
2019-03-05T23:56:50.090Z,2.58
2019-03-05T23:59:19.891Z,2.57
